createdAt,value
2023-03-12T00:01:21.050Z,68.37
2023-03-12T00:03:49.276Z,67.89
2023-03-12T00:06:17.777Z,68.93
2023-03-12T00:08:45.286Z,68.71
2023-03-12T00:11:15.077Z,68.30
2023-03-12T00:13:42.575Z,68.92
2023-03-12T00:16:15.332Z,68.14
2023-03-12T00:18:43.474Z,68.81
2023-03-12T00:21:10.458Z,69.26
2023-03-12T00:23:37.918Z,68.88
2023-03-12T00:26:10.743Z,69.59
2023-03-12T00:28:38.709Z,69.23
2023-03-12T00:31:19.797Z,69.49
2023-03-12T00:33:49.554Z,69.46
2023-03-12T00:36:18.335Z,69.47
2023-03-12T00:38:45.280Z,69.38
2023-03-12T00:41:12.257Z,69.33
2023-03-12T00:43:39.298Z,69.66
2023-03-12T00:46:06.299Z,69.89
2023-03-12T00:48:33.434Z,69.60
2023-03-12T00:51:00.442Z,68.99
2023-03-12T00:53:27.544Z,69.29
2023-03-12T00:55:54.455Z,69.86
2023-03-12T00:58:21.639Z,69.66
2023-03-12T01:00:48.609Z,70.16
2023-03-12T01:03:16.342Z,69.70
2023-03-12T01:05:43.149Z,69.56
2023-03-12T01:08:11.405Z,69.62
2023-03-12T01:10:43.546Z,70.13
2023-03-12T01:13:10.466Z,70.23
2023-03-12T01:15:37.486Z,70.05
2023-03-12T01:18:05.297Z,70.57
2023-03-12T01:20:32.302Z,70.44
2023-03-12T01:22:59.126Z,70.22
2023-03-12T01:25:26.156Z,70.30
2023-03-12T01:27:53.334Z,70.15
2023-03-12T01:30:20.408Z,69.76
2023-03-12T01:32:47.358Z,70.14
2023-03-12T01:35:14.428Z,70.01
2023-03-12T01:37:41.291Z,69.99
2023-03-12T01:40:09.035Z,69.67
2023-03-12T01:42:35.881Z,70.19
2023-03-12T01:45:04.706Z,70.15
2023-03-12T01:47:33.094Z,69.84
2023-03-12T01:50:04.716Z,69.26
2023-03-12T01:52:37.273Z,69.65
2023-03-12T01:55:12.675Z,69.28
2023-03-12T01:57:55.892Z,69.59
2023-03-12T02:00:25.967Z,69.77
2023-03-12T02:02:59.980Z,70.07
2023-03-12T02:05:51.414Z,69.52
2023-03-12T02:08:19.156Z,70.25
2023-03-12T02:10:46.718Z,70.20
2023-03-12T02:13:14.281Z,69.73
2023-03-12T02:15:45.269Z,70.20
2023-03-12T02:18:16.861Z,69.84
2023-03-12T02:21:15.064Z,70.26
2023-03-12T02:23:52.873Z,69.83
2023-03-12T02:26:21.827Z,69.92
2023-03-12T02:28:50.461Z,70.52
2023-03-12T02:31:26.121Z,70.47
2023-03-12T02:33:53.382Z,70.37
2023-03-12T02:36:20.907Z,70.48
2023-03-12T02:38:49.019Z,70.41
2023-03-12T02:41:32.838Z,70.55
2023-03-12T02:44:16.567Z,71.46
2023-03-12T02:46:50.917Z,70.48
2023-03-12T02:49:20.021Z,70.92
2023-03-12T02:51:48.136Z,71.40
2023-03-12T02:54:17.360Z,71.32
2023-03-12T02:56:44.284Z,71.22
2023-03-12T02:59:13.261Z,71.63
2023-03-12T03:01:43.275Z,71.21
2023-03-12T03:04:12.410Z,72.01
2023-03-12T03:06:43.973Z,70.99
2023-03-12T03:09:11.484Z,71.57
2023-03-12T03:11:38.309Z,71.66
2023-03-12T03:14:07.109Z,71.88
2023-03-12T03:16:34.922Z,72.21
2023-03-12T03:19:02.219Z,71.99
2023-03-12T03:21:30.836Z,72.10
2023-03-12T03:23:57.835Z,72.34
2023-03-12T03:26:25.173Z,72.64
2023-03-12T03:28:53.014Z,72.50
2023-03-12T03:31:20.743Z,72.16
2023-03-12T03:33:48.083Z,72.33
2023-03-12T03:36:16.161Z,72.34
2023-03-12T03:39:05.260Z,72.84
2023-03-12T03:41:35.552Z,72.96
2023-03-12T03:44:02.755Z,73.26
2023-03-12T03:46:31.885Z,72.70
2023-03-12T03:49:02.612Z,72.16
2023-03-12T03:51:30.528Z,72.51
2023-03-12T03:54:01.738Z,72.16
2023-03-12T03:56:29.336Z,72.67
2023-03-12T03:58:58.440Z,71.92
2023-03-12T04:01:26.346Z,72.58
2023-03-12T04:03:54.934Z,72.42
2023-03-12T04:06:21.981Z,72.42
2023-03-12T04:08:49.020Z,72.51
2023-03-12T04:11:22.056Z,72.51
2023-03-12T04:13:49.576Z,72.58
2023-03-12T04:16:18.921Z,72.54
2023-03-12T04:18:46.725Z,73.24
2023-03-12T04:21:15.523Z,72.42
2023-03-12T04:23:43.396Z,72.77
2023-03-12T04:26:12.307Z,72.63
2023-03-12T04:28:39.940Z,73.57
2023-03-12T04:31:08.965Z,73.35
2023-03-12T04:33:44.225Z,73.19
2023-03-12T04:36:13.628Z,73.64
2023-03-12T04:38:43.564Z,73.75
2023-03-12T04:41:15.293Z,73.87
2023-03-12T04:43:49.767Z,74.03
2023-03-12T04:46:18.838Z,73.97
2023-03-12T04:48:46.077Z,74.04
2023-03-12T04:51:14.087Z,74.28
2023-03-12T04:53:41.008Z,74.30
2023-03-12T04:56:10.229Z,74.50
2023-03-12T04:58:38.754Z,74.76
2023-03-12T05:01:25.732Z,74.67
2023-03-12T05:03:53.879Z,74.38
2023-03-12T05:06:22.831Z,74.25
2023-03-12T05:08:49.973Z,74.82
2023-03-12T05:11:18.607Z,74.49
2023-03-12T05:13:46.069Z,74.57
2023-03-12T05:16:13.904Z,74.29
2023-03-12T05:18:42.324Z,74.54
2023-03-12T05:21:13.909Z,73.81
2023-03-12T05:23:42.738Z,74.03
2023-03-12T05:26:17.564Z,73.58
2023-03-12T05:28:44.685Z,73.44
2023-03-12T05:31:13.162Z,73.57
2023-03-12T05:33:40.664Z,72.91
2023-03-12T05:36:09.625Z,73.16
2023-03-12T05:38:37.548Z,73.28
2023-03-12T05:41:05.907Z,73.06
2023-03-12T05:43:36.397Z,72.48
2023-03-12T05:46:05.562Z,72.27
2023-03-12T05:48:34.737Z,72.37
2023-03-12T05:51:02.928Z,72.33
2023-03-12T05:53:31.202Z,71.97
2023-03-12T05:56:06.416Z,71.72
2023-03-12T05:58:34.953Z,71.86
2023-03-12T06:01:02.810Z,70.52
2023-03-12T06:03:29.795Z,69.98
2023-03-12T06:05:57.366Z,69.91
2023-03-12T06:08:25.392Z,70.36
2023-03-12T06:10:55.042Z,70.63
2023-03-12T06:13:23.330Z,70.51
2023-03-12T06:15:50.330Z,70.15
2023-03-12T06:18:17.510Z,69.92
2023-03-12T06:20:44.372Z,69.74
2023-03-12T06:23:11.529Z,69.29
2023-03-12T06:25:38.487Z,68.27
2023-03-12T06:28:05.507Z,67.95
2023-03-12T06:30:32.478Z,67.80
2023-03-12T06:32:59.491Z,67.86
2023-03-12T06:35:26.599Z,67.71
2023-03-12T06:37:53.502Z,67.18
2023-03-12T06:40:20.987Z,66.97
2023-03-12T06:42:48.055Z,67.46
2023-03-12T06:45:15.261Z,66.66
2023-03-12T06:47:42.031Z,66.85
2023-03-12T06:50:09.717Z,66.77
2023-03-12T06:52:36.607Z,66.46
2023-03-12T06:55:03.920Z,65.55
2023-03-12T06:57:30.868Z,65.15
2023-03-12T06:59:57.763Z,64.65
2023-03-12T07:02:24.750Z,64.76
2023-03-12T07:04:51.913Z,63.84
2023-03-12T07:07:20.096Z,64.60
2023-03-12T07:09:47.078Z,64.58
2023-03-12T07:12:13.993Z,64.10
2023-03-12T07:14:40.893Z,63.75
2023-03-12T07:17:07.717Z,63.57
2023-03-12T07:19:34.626Z,63.33
2023-03-12T07:22:01.691Z,63.06
2023-03-12T07:24:28.556Z,63.01
2023-03-12T07:26:55.456Z,62.19
2023-03-12T07:29:22.399Z,62.71
2023-03-12T07:31:49.391Z,62.60
2023-03-12T07:34:16.296Z,62.76
2023-03-12T07:36:43.552Z,62.77
2023-03-12T07:39:10.492Z,61.33
2023-03-12T07:41:39.064Z,60.63
2023-03-12T07:44:06.320Z,60.68
2023-03-12T07:46:33.197Z,61.39
2023-03-12T07:49:00.125Z,60.46
2023-03-12T07:51:27.199Z,59.72
2023-03-12T07:53:54.152Z,61.24
2023-03-12T07:56:21.178Z,61.20
2023-03-12T07:58:48.578Z,60.92
2023-03-12T08:01:15.622Z,60.89
2023-03-12T08:03:43.235Z,60.39
2023-03-12T08:06:10.633Z,60.75
2023-03-12T08:08:41.723Z,58.92
2023-03-12T08:11:09.628Z,59.08
2023-03-12T08:13:36.522Z,60.40
2023-03-12T08:16:03.884Z,60.60
2023-03-12T08:18:30.797Z,60.91
2023-03-12T08:20:57.876Z,59.93
2023-03-12T08:23:24.933Z,59.11
2023-03-12T08:25:53.003Z,58.71
2023-03-12T08:28:21.462Z,58.51
2023-03-12T08:30:59.939Z,58.55
2023-03-12T08:33:27.434Z,57.84
2023-03-12T08:35:54.335Z,57.64
2023-03-12T08:38:21.340Z,57.14
2023-03-12T08:40:58.224Z,55.85
2023-03-12T08:43:27.366Z,55.67
2023-03-12T08:46:01.629Z,57.56
2023-03-12T08:48:30.584Z,56.91
2023-03-12T08:50:59.077Z,57.45
2023-03-12T08:53:27.134Z,58.12
2023-03-12T08:55:55.458Z,57.32
2023-03-12T08:58:23.649Z,57.42
2023-03-12T09:00:51.675Z,57.01
2023-03-12T09:03:18.992Z,57.43
2023-03-12T09:05:46.365Z,56.67
2023-03-12T09:08:13.868Z,57.42
2023-03-12T09:10:40.710Z,57.21
2023-03-12T09:13:07.927Z,57.45
2023-03-12T09:15:34.818Z,57.26
2023-03-12T09:18:01.737Z,56.70
2023-03-12T09:20:28.702Z,55.73
2023-03-12T09:22:55.727Z,57.26
2023-03-12T09:25:23.416Z,56.40
2023-03-12T09:27:50.450Z,56.62
2023-03-12T09:30:22.470Z,56.41
2023-03-12T09:32:49.787Z,55.79
2023-03-12T09:35:17.024Z,56.22
2023-03-12T09:37:44.170Z,55.74
2023-03-12T09:40:17.468Z,56.49
2023-03-12T09:42:50.996Z,55.65
2023-03-12T09:45:24.896Z,56.63
2023-03-12T09:48:01.607Z,56.47
2023-03-12T09:50:33.618Z,56.74
2023-03-12T09:53:11.653Z,55.74
2023-03-12T09:55:41.370Z,56.93
2023-03-12T09:58:22.606Z,55.47
2023-03-12T10:00:49.436Z,54.91
2023-03-12T10:03:58.113Z,56.07
2023-03-12T10:07:00.649Z,56.54
2023-03-12T10:09:45.935Z,55.08
2023-03-12T10:12:33.400Z,56.15
2023-03-12T10:15:21.708Z,55.63
2023-03-12T10:18:26.112Z,55.37
2023-03-12T10:21:04.355Z,54.64
2023-03-12T10:23:40.071Z,54.77
2023-03-12T10:26:29.580Z,54.43
2023-03-12T10:29:05.153Z,55.68
2023-03-12T10:31:43.903Z,56.49
2023-03-12T10:34:44.155Z,56.51
2023-03-12T10:37:39.892Z,55.82
2023-03-12T10:40:07.314Z,56.77
2023-03-12T10:42:34.266Z,56.69
2023-03-12T10:45:11.291Z,55.48
2023-03-12T10:47:40.916Z,55.91
2023-03-12T10:50:18.234Z,53.63
2023-03-12T10:52:47.065Z,53.40
2023-03-12T10:55:29.434Z,55.01
2023-03-12T10:57:56.837Z,53.48
2023-03-12T11:00:26.922Z,54.67
2023-03-12T11:03:00.506Z,51.99
2023-03-12T11:05:32.321Z,52.13
2023-03-12T11:08:01.944Z,51.72
2023-03-12T11:10:38.122Z,52.64
2023-03-12T11:13:21.958Z,54.75
2023-03-12T11:15:48.872Z,54.28
2023-03-12T11:18:18.682Z,54.39
2023-03-12T11:20:46.289Z,54.64
2023-03-12T11:23:21.483Z,55.45
2023-03-12T11:26:01.993Z,55.74
2023-03-12T11:28:43.173Z,54.54
2023-03-12T11:31:19.396Z,54.54
2023-03-12T11:33:46.476Z,54.11
2023-03-12T11:36:50.631Z,55.07
2023-03-12T11:39:33.924Z,54.82
2023-03-12T11:42:15.825Z,54.17
2023-03-12T11:44:51.235Z,54.51
2023-03-12T11:47:39.928Z,55.09
2023-03-12T11:50:31.528Z,53.61
2023-03-12T11:53:13.447Z,54.65
2023-03-12T11:55:57.139Z,53.90
2023-03-12T11:58:56.923Z,55.03
2023-03-12T12:01:45.275Z,55.12
2023-03-12T12:04:33.714Z,55.46
2023-03-12T12:07:03.504Z,54.86
2023-03-12T12:09:39.260Z,53.10
2023-03-12T12:12:33.531Z,52.84
2023-03-12T12:15:24.045Z,52.83
2023-03-12T12:18:02.242Z,52.67
2023-03-12T12:20:43.974Z,52.82
2023-03-12T12:23:24.948Z,54.10
2023-03-12T12:26:13.920Z,54.57
2023-03-12T12:29:05.523Z,54.12
2023-03-12T12:31:44.521Z,55.38
2023-03-12T12:34:36.095Z,55.17
2023-03-12T12:37:15.148Z,55.66
2023-03-12T12:39:48.679Z,55.92
2023-03-12T12:42:23.032Z,55.89
2023-03-12T12:44:53.585Z,56.00
2023-03-12T12:47:29.014Z,55.41
2023-03-12T12:49:59.124Z,54.45
2023-03-12T12:52:27.151Z,53.81
2023-03-12T12:55:14.895Z,53.20
2023-03-12T12:57:45.851Z,52.74
2023-03-12T13:00:40.865Z,52.73
2023-03-12T13:03:13.859Z,52.56
2023-03-12T13:05:46.940Z,51.87
2023-03-12T13:08:56.749Z,51.12
2023-03-12T13:11:46.823Z,52.09
2023-03-12T13:14:36.919Z,51.63
2023-03-12T13:17:19.300Z,50.93
2023-03-12T13:19:55.444Z,49.86
2023-03-12T13:22:37.994Z,50.29
2023-03-12T13:25:23.365Z,51.64
2023-03-12T13:27:59.795Z,50.82
2023-03-12T13:30:32.669Z,50.31
2023-03-12T13:33:01.716Z,50.72
2023-03-12T13:35:39.795Z,50.96
2023-03-12T13:38:53.187Z,51.06
2023-03-12T13:41:34.682Z,50.83
2023-03-12T13:44:24.089Z,51.35
2023-03-12T13:46:57.209Z,51.31
2023-03-12T13:49:25.350Z,52.33
2023-03-12T13:52:02.641Z,51.54
2023-03-12T13:54:35.224Z,51.94
2023-03-12T13:57:10.924Z,51.07
2023-03-12T13:59:45.675Z,51.23
2023-03-12T14:02:22.648Z,51.56
2023-03-12T14:04:50.205Z,52.94
2023-03-12T14:07:26.254Z,50.45
2023-03-12T14:10:12.657Z,49.96
2023-03-12T14:12:45.134Z,50.17
2023-03-12T14:15:40.262Z,50.66
2023-03-12T14:18:21.449Z,50.75
2023-03-12T14:21:03.529Z,51.33
2023-03-12T14:23:53.912Z,51.57
2023-03-12T14:26:31.604Z,51.86
2023-03-12T14:29:04.744Z,51.75
2023-03-12T14:31:32.652Z,51.99
2023-03-12T14:34:18.684Z,52.15
2023-03-12T14:37:09.974Z,53.01
2023-03-12T14:39:50.790Z,53.05
2023-03-12T14:42:26.219Z,53.72
2023-03-12T14:44:57.760Z,52.92
2023-03-12T14:47:24.958Z,53.48
2023-03-12T14:49:51.912Z,53.49
2023-03-12T14:52:26.229Z,54.20
2023-03-12T14:55:08.526Z,54.27
2023-03-12T14:57:35.624Z,54.29
2023-03-12T15:00:04.026Z,54.46
2023-03-12T15:02:31.962Z,54.02
2023-03-12T15:05:01.875Z,54.41
2023-03-12T15:07:34.935Z,54.27
2023-03-12T15:10:07.746Z,54.03
2023-03-12T15:12:37.837Z,53.47
2023-03-12T15:15:11.425Z,53.09
2023-03-12T15:17:38.521Z,53.19
2023-03-12T15:20:10.487Z,52.55
2023-03-12T15:22:38.473Z,53.31
2023-03-12T15:25:25.596Z,52.82
2023-03-12T15:28:22.704Z,52.88
2023-03-12T15:31:09.006Z,53.26
2023-03-12T15:33:36.154Z,53.20
2023-03-12T15:36:19.039Z,53.25
2023-03-12T15:39:29.900Z,52.90
2023-03-12T15:42:01.517Z,53.12
2023-03-12T15:44:42.810Z,52.52
2023-03-12T15:47:20.496Z,52.04
2023-03-12T15:49:59.960Z,52.55
2023-03-12T15:52:31.998Z,52.87
2023-03-12T15:55:12.360Z,53.14
2023-03-12T15:57:48.913Z,53.37
2023-03-12T16:00:19.075Z,54.40
2023-03-12T16:02:59.273Z,53.98
2023-03-12T16:05:33.423Z,53.92
2023-03-12T16:08:15.879Z,54.83
2023-03-12T16:10:43.335Z,54.85
2023-03-12T16:13:15.111Z,55.78
2023-03-12T16:15:42.524Z,56.74
2023-03-12T16:18:17.630Z,57.50
2023-03-12T16:20:45.885Z,58.12
2023-03-12T16:23:13.353Z,58.55
2023-03-12T16:25:44.221Z,58.84
2023-03-12T16:28:15.508Z,59.06
2023-03-12T16:30:43.086Z,59.15
2023-03-12T16:33:15.046Z,59.59
2023-03-12T16:35:42.318Z,59.84
2023-03-12T16:38:09.235Z,59.75
2023-03-12T16:40:39.082Z,60.51
2023-03-12T16:43:11.794Z,60.82
2023-03-12T16:45:43.710Z,61.78
2023-03-12T16:48:17.330Z,61.90
2023-03-12T16:50:57.790Z,62.50
2023-03-12T16:53:25.207Z,62.58
2023-03-12T16:55:57.603Z,62.41
2023-03-12T16:58:26.795Z,62.43
2023-03-12T17:00:55.659Z,63.11
2023-03-12T17:03:33.794Z,63.09
2023-03-12T17:06:02.078Z,63.34
2023-03-12T17:08:29.104Z,63.50
2023-03-12T17:10:57.545Z,63.17
2023-03-12T17:13:27.659Z,63.38
2023-03-12T17:15:55.537Z,63.29
2023-03-12T17:18:23.035Z,63.38
2023-03-12T17:20:51.890Z,63.32
2023-03-12T17:23:19.346Z,63.66
2023-03-12T17:25:46.952Z,63.81
2023-03-12T17:28:15.483Z,63.91
2023-03-12T17:30:42.947Z,64.35
2023-03-12T17:33:14.018Z,64.18
2023-03-12T17:35:42.128Z,64.81
2023-03-12T17:38:09.927Z,64.86
2023-03-12T17:40:44.260Z,64.94
2023-03-12T17:43:11.217Z,65.21
2023-03-12T17:45:38.508Z,65.09
2023-03-12T17:48:05.702Z,65.29
2023-03-12T17:50:32.723Z,65.26
2023-03-12T17:52:59.617Z,65.24
2023-03-12T17:55:26.514Z,65.74
2023-03-12T17:57:53.588Z,65.41
2023-03-12T18:00:22.672Z,65.65
2023-03-12T18:02:50.401Z,65.29
2023-03-12T18:05:17.336Z,65.14
2023-03-12T18:07:46.911Z,65.17
2023-03-12T18:10:14.330Z,65.57
2023-03-12T18:12:41.409Z,65.89
2023-03-12T18:15:12.398Z,65.35
2023-03-12T18:17:44.916Z,65.46
2023-03-12T18:20:16.630Z,65.39
2023-03-12T18:22:46.488Z,65.91
2023-03-12T18:25:14.000Z,66.30
2023-03-12T18:27:41.154Z,66.48
2023-03-12T18:30:11.511Z,66.27
2023-03-12T18:32:38.990Z,66.35
2023-03-12T18:35:08.141Z,66.39
2023-03-12T18:37:35.083Z,66.46
2023-03-12T18:40:02.124Z,66.77
2023-03-12T18:42:29.208Z,66.57
2023-03-12T18:44:56.054Z,66.77
2023-03-12T18:47:23.284Z,66.61
2023-03-12T18:49:53.235Z,66.69
2023-03-12T18:52:20.177Z,66.81
2023-03-12T18:54:47.231Z,66.59
2023-03-12T18:57:14.385Z,66.33
2023-03-12T18:59:45.278Z,66.55
2023-03-12T19:02:12.526Z,66.30
2023-03-12T19:04:39.702Z,66.28
2023-03-12T19:07:07.796Z,66.34
2023-03-12T19:09:35.188Z,66.68
2023-03-12T19:12:02.287Z,67.18
2023-03-12T19:14:30.064Z,67.21
2023-03-12T19:16:57.756Z,67.41
2023-03-12T19:19:24.912Z,67.48
2023-03-12T19:21:51.928Z,67.66
2023-03-12T19:24:18.804Z,68.25
2023-03-12T19:26:45.831Z,67.95
2023-03-12T19:29:12.754Z,68.53
2023-03-12T19:31:39.668Z,68.96
2023-03-12T19:34:06.789Z,69.61
2023-03-12T19:36:33.621Z,69.83
2023-03-12T19:39:02.368Z,69.63
2023-03-12T19:41:31.244Z,69.72
2023-03-12T19:43:58.204Z,69.81
2023-03-12T19:46:24.990Z,70.01
2023-03-12T19:48:51.924Z,70.39
2023-03-12T19:51:18.861Z,70.98
2023-03-12T19:53:45.860Z,71.43
2023-03-12T19:56:12.877Z,72.38
2023-03-12T19:58:39.877Z,73.08
2023-03-12T20:01:07.300Z,73.51
2023-03-12T20:03:34.746Z,73.84
2023-03-12T20:06:02.060Z,74.03
2023-03-12T20:08:31.887Z,74.18
2023-03-12T20:11:07.831Z,74.22
2023-03-12T20:13:35.626Z,74.24
2023-03-12T20:16:03.888Z,74.74
2023-03-12T20:18:30.989Z,74.81
2023-03-12T20:20:58.162Z,74.73
2023-03-12T20:23:25.206Z,75.51
2023-03-12T20:25:52.213Z,76.13
2023-03-12T20:28:19.162Z,76.19
2023-03-12T20:30:45.977Z,76.09
2023-03-12T20:33:13.007Z,76.64
2023-03-12T20:35:40.365Z,76.55
2023-03-12T20:38:07.624Z,76.72
2023-03-12T20:40:34.497Z,76.34
2023-03-12T20:43:04.875Z,76.22
2023-03-12T20:45:33.981Z,75.81
2023-03-12T20:48:01.290Z,76.35
2023-03-12T20:50:28.827Z,76.47
2023-03-12T20:52:55.771Z,76.45
2023-03-12T20:55:22.822Z,76.46
2023-03-12T20:57:49.866Z,76.45
2023-03-12T21:00:17.358Z,76.52
2023-03-12T21:02:44.174Z,76.30
2023-03-12T21:05:11.510Z,76.86
2023-03-12T21:07:38.487Z,76.66
2023-03-12T21:10:06.408Z,76.62
2023-03-12T21:12:33.355Z,77.07
2023-03-12T21:15:06.296Z,77.32
2023-03-12T21:17:34.736Z,77.05
2023-03-12T21:20:01.994Z,76.92
2023-03-12T21:22:30.887Z,77.01
2023-03-12T21:24:58.529Z,76.39
2023-03-12T21:27:25.545Z,77.04
2023-03-12T21:29:53.864Z,77.23
2023-03-12T21:32:21.994Z,76.95
2023-03-12T21:34:49.963Z,76.85
2023-03-12T21:37:17.025Z,77.30
2023-03-12T21:39:44.063Z,78.26
2023-03-12T21:42:11.494Z,78.09
2023-03-12T21:44:38.634Z,78.11
2023-03-12T21:47:06.159Z,78.45
2023-03-12T21:49:35.003Z,78.92
2023-03-12T21:52:03.543Z,78.60
2023-03-12T21:54:32.834Z,78.74
2023-03-12T21:57:03.528Z,79.22
2023-03-12T21:59:31.347Z,79.60
2023-03-12T22:01:58.641Z,79.38
2023-03-12T22:04:25.558Z,80.06
2023-03-12T22:06:52.477Z,79.74
2023-03-12T22:09:19.679Z,79.72
2023-03-12T22:11:46.541Z,79.42
2023-03-12T22:14:13.723Z,79.78
2023-03-12T22:16:40.852Z,79.65
2023-03-12T22:19:08.572Z,80.31
2023-03-12T22:21:35.842Z,80.53
2023-03-12T22:24:02.817Z,81.14
2023-03-12T22:26:30.344Z,81.00
2023-03-12T22:28:58.718Z,81.38
2023-03-12T22:31:27.974Z,82.08
2023-03-12T22:33:55.306Z,81.73
2023-03-12T22:36:23.062Z,82.37
2023-03-12T22:38:50.010Z,82.63
2023-03-12T22:41:19.693Z,82.86
2023-03-12T22:43:48.261Z,82.67
2023-03-12T22:46:17.226Z,83.36
2023-03-12T22:48:46.182Z,83.27
2023-03-12T22:51:13.530Z,83.47
2023-03-12T22:53:40.349Z,83.79
2023-03-12T22:56:09.596Z,83.79
2023-03-12T22:58:37.059Z,83.53
2023-03-12T23:01:07.018Z,83.65
2023-03-12T23:03:36.117Z,83.38
2023-03-12T23:06:04.095Z,83.04
2023-03-12T23:08:31.142Z,83.38
2023-03-12T23:11:01.329Z,83.03
2023-03-12T23:13:30.135Z,83.42
2023-03-12T23:16:09.389Z,84.39
2023-03-12T23:18:36.727Z,84.78
2023-03-12T23:21:07.028Z,84.64
2023-03-12T23:23:35.406Z,84.33
2023-03-12T23:26:03.541Z,84.54
2023-03-12T23:28:31.252Z,85.18
2023-03-12T23:31:04.136Z,85.59
2023-03-12T23:33:32.684Z,85.82
2023-03-12T23:36:02.790Z,85.03
2023-03-12T23:38:31.220Z,85.67
2023-03-12T23:41:09.384Z,85.80
2023-03-12T23:43:36.689Z,85.76
2023-03-12T23:46:05.825Z,85.71
2023-03-12T23:48:34.272Z,86.02
2023-03-12T23:51:10.077Z,85.82
2023-03-12T23:53:38.106Z,85.99
2023-03-12T23:56:07.371Z,86.60
2023-03-12T23:58:34.895Z,86.67
